Mutual, Oklahoma
Current Conditions -  °F | °C
As of 8:35 PM on Friday 24 Oct 2014 (Local Time) from KWWR Reporting Station
Clear Clear  
Wind Chill: 21°   Ceiling: Unl
Heat Index: 21°   Visibility: 10mi
Dew Point: 15°   Wind: 7mph
Humidity: 68%   Direction: 170°S
Pressure: 30.08"   Gusts: NA
Location:  36.23°N, 99.17°W
Report Text: KWWR 250135Z AUTO 17006KT 10SM CLR 21/15 A3008 RMK AO2
Loading
Personal Weather Stations






























Interactive Weather Map
Tropical Storm Tracking
New forecast layout! Learn more

10-Day Weather Forecast

Advertisements
Track Severe Weather on mobile